Etusivu
METAR-TAF:

METAR-TAF

Lentoasemat :

N'Djamena, Tšad

N’Djamenan kansainvälinen lentoasema

Leveyspiiri: 12-08N, Pituuspiiri: 015-02E, korkeus merenpinnasta: 295 m

Tämänhetkinen sää

Tämä raportti tehtiin 43 minuuttia sitten, kello 14.00 UTC
Tuuli 9 kn idästä, vaihdellen idän ja etelän välillä
Lämpötila 43°C
Kosteus 8%
Ilmanpaine 1004 hPa
Näkyvyys 10 km tai enemmän
ei pilviä alle 1500 m:ssä eikä cumulonimbus-pilviä

METAR: FTTJ 201400Z 08009KT 080V180 CAVOK 43/01 Q1004 NOSIG

Aika: 15:43 (14:43 UTC)

Sääennuste

Tämä raportti tehtiin 3 tuntia ja 43 minuuttia sitten, kello 11.00 UTC
Ennuste voimassa 20. päivästä klo 12 UTC - 21. päivään klo 18 UTC
Tuuli 4 kn eri suunnista
Näkyvyys: 6000 m
Todennäköisyys 30% :
Ajoittain
21. päivästä klo 14 UTC - 21. päivään klo 18 UTC
Tuuli 15 kn eri suunnista puuskistuen 25 kn:hen
Näkyvyys: 4000 m
pölymyrsky, ukkosmyrsky

TAF: FTTJ 201100Z 2012/2118 VRB04KT 6000 NSC PROB30 TEMPO 2114/2118 VRB15G25KT 4000 BLDU TS

Säähavainnot ja -ennusteet yli 4000 lentoasemalta (METAR- ja TAF-raportit).

Käytössä olevat sääasemat on merkitty karttaan keltaisilla ja punaisilla pisteillä.

Aseta hiiri pisteen päälle nähdäksesi sääaseman nimen.

Klikkaa sitten nähdäksesi säähavainnot ja -ennusteet.

Kartan vaihtaminen: klikkaa mustalla rastilla varustettuja vihreitä pisteitä, niin voit zoomata sisään; viivalla varustettua vihreää pistettä, niin voit zoomata ulos tai vihreitä nuolia, niin pääset viereisille kartoille.


METAR-TAF: